Terminal Aerodrome Forecast
Issued by NWS Boston, MA

Current Version | Previous Version | Text Only | Print | Product List | Glossary On
Versions: 1 2 3 4 5 6 7 8 9 10 11 12 13 14 15 16 17 18 19 20 21 22 23 24 25 26 27 28 29 30 31 32 33 34 35 36 37 38 39 40 41 42 43 44 45 46 47 48
000
FTUS41 KBOX 261132
TAFBOS
TAF
KBOS 261132Z 2612/2718 33008KT P6SM OVC110
     FM261400 36005KT 6SM -RA OVC080
     FM261600 02006KT 3SM -RA OVC020
     FM261800 03007KT 1SM RASN OVC008
     FM262100 03011G32KT 1SM RASNPL OVC008
     FM270300 01014G40KT 1SM -RAPL OVC008
     FM270600 34013G39KT P6SM OVC015
     FM270900 33010G25KT P6SM BKN040=

USA.gov is the U.S. government's official web portal to all federal, state and local government web resources and services.